sensor_id;sensor_type;location;lat;lon;timestamp;pressure;altitude;pressure_sealevel;temperature;humidity
71105;BME280;58760;48.716;8.962;2023-03-25T00:01:54;95895.84;;;7.26;95.89
71105;BME280;58760;48.716;8.962;2023-03-25T00:04:20;95894.53;;;7.22;95.63
71105;BME280;58760;48.716;8.962;2023-03-25T00:06:45;95900.31;;;7.18;95.79
71105;BME280;58760;48.716;8.962;2023-03-25T00:09:11;95896.84;;;7.17;95.03
71105;BME280;58760;48.716;8.962;2023-03-25T00:11:36;95884.97;;;7.13;94.41
71105;BME280;58760;48.716;8.962;2023-03-25T00:14:01;95889.41;;;7.13;93.75
71105;BME280;58760;48.716;8.962;2023-03-25T00:16:27;95890.28;;;7.05;93.94
71105;BME280;58760;48.716;8.962;2023-03-25T00:18:52;95880.56;;;6.98;93.47
71105;BME280;58760;48.716;8.962;2023-03-25T00:21:18;95895.22;;;7.00;93.54
71105;BME280;58760;48.716;8.962;2023-03-25T00:23:44;95902.47;;;6.98;92.64
71105;BME280;58760;48.716;8.962;2023-03-25T00:26:09;95890.59;;;6.94;93.83
71105;BME280;58760;48.716;8.962;2023-03-25T00:28:36;95886.84;;;6.89;93.82
71105;BME280;58760;48.716;8.962;2023-03-25T00:31:06;95888.31;;;6.91;94.04
71105;BME280;58760;48.716;8.962;2023-03-25T00:33:32;95885.66;;;6.91;93.79
71105;BME280;58760;48.716;8.962;2023-03-25T00:35:57;95898.38;;;6.79;94.16
71105;BME280;58760;48.716;8.962;2023-03-25T00:38:27;95892.25;;;6.71;94.18
71105;BME280;58760;48.716;8.962;2023-03-25T00:41:12;95893.91;;;6.72;94.15
71105;BME280;58760;48.716;8.962;2023-03-25T00:43:39;95886.31;;;6.77;94.24
71105;BME280;58760;48.716;8.962;2023-03-25T00:46:05;95881.41;;;6.66;94.29
71105;BME280;58760;48.716;8.962;2023-03-25T00:48:30;95869.50;;;6.70;93.91
71105;BME280;58760;48.716;8.962;2023-03-25T00:50:56;95868.88;;;6.68;92.49
71105;BME280;58760;48.716;8.962;2023-03-25T00:53:21;95872.47;;;6.83;91.62
71105;BME280;58760;48.716;8.962;2023-03-25T00:55:47;95869.19;;;6.81;91.29
71105;BME280;58760;48.716;8.962;2023-03-25T00:58:12;95867.19;;;6.83;89.84
71105;BME280;58760;48.716;8.962;2023-03-25T01:00:37;95864.91;;;6.80;89.40
71105;BME280;58760;48.716;8.962;2023-03-25T01:03:03;95860.47;;;6.72;89.92
71105;BME280;58760;48.716;8.962;2023-03-25T01:05:29;95870.03;;;6.81;89.58
71105;BME280;58760;48.716;8.962;2023-03-25T01:07:54;95874.13;;;6.84;88.73
71105;BME280;58760;48.716;8.962;2023-03-25T01:10:20;95866.88;;;6.70;89.33
71105;BME280;58760;48.716;8.962;2023-03-25T01:12:47;95869.69;;;6.76;89.21
71105;BME280;58760;48.716;8.962;2023-03-25T01:15:12;95871.00;;;6.80;89.22
71105;BME280;58760;48.716;8.962;2023-03-25T01:17:38;95869.19;;;6.65;89.45
71105;BME280;58760;48.716;8.962;2023-03-25T01:20:03;95876.09;;;6.74;90.73
71105;BME280;58760;48.716;8.962;2023-03-25T01:22:34;95868.19;;;6.74;90.13
71105;BME280;58760;48.716;8.962;2023-03-25T01:24:59;95848.75;;;6.67;90.49
71105;BME280;58760;48.716;8.962;2023-03-25T01:27:25;95847.44;;;6.79;90.10
71105;BME280;58760;48.716;8.962;2023-03-25T01:29:50;95854.03;;;6.91;89.98
71105;BME280;58760;48.716;8.962;2023-03-25T01:32:16;95842.19;;;6.79;89.92
71105;BME280;58760;48.716;8.962;2023-03-25T01:34:41;95823.38;;;6.82;90.86
71105;BME280;58760;48.716;8.962;2023-03-25T01:37:10;95830.44;;;6.90;88.23
71105;BME280;58760;48.716;8.962;2023-03-25T01:39:35;95834.25;;;6.95;88.64
71105;BME280;58760;48.716;8.962;2023-03-25T01:42:01;95843.81;;;6.88;88.23
71105;BME280;58760;48.716;8.962;2023-03-25T01:46:53;95835.56;;;6.83;88.27
71105;BME280;58760;48.716;8.962;2023-03-25T01:49:47;95823.06;;;6.85;88.01
71105;BME280;58760;48.716;8.962;2023-03-25T01:52:13;95817.78;;;6.85;87.99
71105;BME280;58760;48.716;8.962;2023-03-25T01:54:41;95816.16;;;6.76;88.00
71105;BME280;58760;48.716;8.962;2023-03-25T01:57:09;95815.47;;;6.74;88.54
71105;BME280;58760;48.716;8.962;2023-03-25T01:59:36;95812.88;;;6.66;89.13
71105;BME280;58760;48.716;8.962;2023-03-25T02:02:03;95811.22;;;6.65;89.46
71105;BME280;58760;48.716;8.962;2023-03-25T02:04:48;95807.94;;;6.63;89.57
71105;BME280;58760;48.716;8.962;2023-03-25T02:07:24;95809.06;;;6.60;89.81
71105;BME280;58760;48.716;8.962;2023-03-25T02:09:54;95803.97;;;6.59;90.10
71105;BME280;58760;48.716;8.962;2023-03-25T02:12:20;95807.59;;;6.66;90.20
71105;BME280;58760;48.716;8.962;2023-03-25T02:14:45;95812.53;;;6.69;90.05
71105;BME280;58760;48.716;8.962;2023-03-25T02:17:35;95814.66;;;6.65;90.76
71105;BME280;58760;48.716;8.962;2023-03-25T02:38:00;95853.69;;;6.94;92.90
71105;BME280;58760;48.716;8.962;2023-03-25T02:40:56;95879.91;;;6.88;93.04
71105;BME280;58760;48.716;8.962;2023-03-25T02:43:04;95861.59;;;6.86;92.86
71105;BME280;58760;48.716;8.962;2023-03-25T02:45:47;95875.44;;;6.88;90.73
71105;BME280;58760;48.716;8.962;2023-03-25T02:48:26;95859.28;;;6.83;88.96
71105;BME280;58760;48.716;8.962;2023-03-25T02:50:59;95838.72;;;6.78;88.99
71105;BME280;58760;48.716;8.962;2023-03-25T02:53:30;95832.94;;;6.75;86.97
71105;BME280;58760;48.716;8.962;2023-03-25T02:56:02;95811.50;;;6.70;87.02
71105;BME280;58760;48.716;8.962;2023-03-25T02:58:29;95806.75;;;6.65;86.09
71105;BME280;58760;48.716;8.962;2023-03-25T03:00:55;95810.72;;;6.61;85.95
71105;BME280;58760;48.716;8.962;2023-03-25T03:03:26;95812.03;;;6.49;86.91
71105;BME280;58760;48.716;8.962;2023-03-25T03:05:56;95824.88;;;6.60;86.30
71105;BME280;58760;48.716;8.962;2023-03-25T03:22:22;95811.56;;;6.29;86.86
71105;BME280;58760;48.716;8.962;2023-03-25T03:25:01;95818.47;;;6.30;86.23
71105;BME280;58760;48.716;8.962;2023-03-25T03:27:33;95824.38;;;6.16;87.49
71105;BME280;58760;48.716;8.962;2023-03-25T03:30:12;95825.38;;;6.07;88.20
71105;BME280;58760;48.716;8.962;2023-03-25T03:32:46;95830.28;;;6.02;88.00
71105;BME280;58760;48.716;8.962;2023-03-25T03:35:42;95831.94;;;6.03;88.19
71105;BME280;58760;48.716;8.962;2023-03-25T03:38:11;95840.81;;;6.02;88.24
71105;BME280;58760;48.716;8.962;2023-03-25T03:40:40;95839.84;;;6.03;88.33
71105;BME280;58760;48.716;8.962;2023-03-25T03:43:15;95841.81;;;6.01;88.57
71105;BME280;58760;48.716;8.962;2023-03-25T03:45:46;95860.41;;;6.00;88.99
71105;BME280;58760;48.716;8.962;2023-03-25T03:48:20;95860.41;;;6.00;89.39
71105;BME280;58760;48.716;8.962;2023-03-25T03:50:54;95856.28;;;6.05;88.38
71105;BME280;58760;48.716;8.962;2023-03-25T03:53:36;95856.28;;;6.05;88.16
71105;BME280;58760;48.716;8.962;2023-03-25T03:56:14;95861.88;;;6.02;88.92
71105;BME280;58760;48.716;8.962;2023-03-25T03:58:44;95854.16;;;6.01;88.81
71105;BME280;58760;48.716;8.962;2023-03-25T04:01:29;95862.72;;;6.03;88.77
71105;BME280;58760;48.716;8.962;2023-03-25T04:04:03;95874.22;;;6.02;89.03
71105;BME280;58760;48.716;8.962;2023-03-25T04:06:37;95876.19;;;5.92;89.27
71105;BME280;58760;48.716;8.962;2023-03-25T04:09:32;95886.72;;;5.92;89.65
71105;BME280;58760;48.716;8.962;2023-03-25T04:12:15;95886.06;;;5.98;90.18
71105;BME280;58760;48.716;8.962;2023-03-25T04:14:42;95887.75;;;5.73;90.46
71105;BME280;58760;48.716;8.962;2023-03-25T04:17:08;95889.69;;;5.63;91.52
71105;BME280;58760;48.716;8.962;2023-03-25T04:19:33;95893.28;;;5.54;91.95
71105;BME280;58760;48.716;8.962;2023-03-25T04:22:04;95885.88;;;5.49;92.28
71105;BME280;58760;48.716;8.962;2023-03-25T04:24:30;95887.28;;;5.36;92.84
71105;BME280;58760;48.716;8.962;2023-03-25T04:26:59;95894.84;;;5.39;93.36
71105;BME280;58760;48.716;8.962;2023-03-25T04:29:29;95886.59;;;5.34;92.54
71105;BME280;58760;48.716;8.962;2023-03-25T04:31:57;95884.34;;;5.39;92.40
71105;BME280;58760;48.716;8.962;2023-03-25T04:34:23;95889.88;;;5.61;90.55
71105;BME280;58760;48.716;8.962;2023-03-25T04:36:49;95890.53;;;5.30;91.26
71105;BME280;58760;48.716;8.962;2023-03-25T04:39:15;95896.44;;;5.32;90.85
71105;BME280;58760;48.716;8.962;2023-03-25T04:41:49;95902.53;;;5.32;91.13
71105;BME280;58760;48.716;8.962;2023-03-25T04:44:16;95894.66;;;5.32;90.74
71105;BME280;58760;48.716;8.962;2023-03-25T04:46:41;95906.91;;;5.49;90.61
71105;BME280;58760;48.716;8.962;2023-03-25T04:49:17;95898.53;;;5.54;89.97
71105;BME280;58760;48.716;8.962;2023-03-25T04:51:43;95893.91;;;5.48;89.83
71105;BME280;58760;48.716;8.962;2023-03-25T04:54:09;95895.59;;;5.57;89.37
71105;BME280;58760;48.716;8.962;2023-03-25T04:56:35;95894.28;;;5.61;88.80
71105;BME280;58760;48.716;8.962;2023-03-25T04:59:01;95892.94;;;5.57;88.56
71105;BME280;58760;48.716;8.962;2023-03-25T05:01:28;95895.13;;;5.61;88.90
71105;BME280;58760;48.716;8.962;2023-03-25T05:03:58;95895.28;;;5.60;88.09
71105;BME280;58760;48.716;8.962;2023-03-25T05:06:33;95909.75;;;5.64;87.50
71105;BME280;58760;48.716;8.962;2023-03-25T05:09:01;95900.84;;;5.57;88.23
71105;BME280;58760;48.716;8.962;2023-03-25T05:11:28;95909.81;;;5.72;88.76
71105;BME280;58760;48.716;8.962;2023-03-25T05:13:54;95916.38;;;5.68;88.49
71105;BME280;58760;48.716;8.962;2023-03-25T05:16:20;95916.25;;;5.77;88.88
71105;BME280;58760;48.716;8.962;2023-03-25T05:18:46;95905.94;;;5.92;87.85
71105;BME280;58760;48.716;8.962;2023-03-25T05:21:12;95910.94;;;6.11;86.95
71105;BME280;58760;48.716;8.962;2023-03-25T05:23:37;95919.81;;;6.02;87.34
71105;BME280;58760;48.716;8.962;2023-03-25T05:26:03;95926.09;;;6.09;87.49
71105;BME280;58760;48.716;8.962;2023-03-25T05:28:29;95921.00;;;6.16;86.98
71105;BME280;58760;48.716;8.962;2023-03-25T05:30:54;95922.53;;;6.26;86.52
71105;BME280;58760;48.716;8.962;2023-03-25T05:33:20;95921.56;;;6.36;86.01
71105;BME280;58760;48.716;8.962;2023-03-25T05:35:46;95927.47;;;6.29;85.57
71105;BME280;58760;48.716;8.962;2023-03-25T05:38:12;95929.13;;;6.30;86.25
71105;BME280;58760;48.716;8.962;2023-03-25T05:40:42;95930.75;;;6.31;85.88
71105;BME280;58760;48.716;8.962;2023-03-25T05:43:10;95926.81;;;6.36;85.69
71105;BME280;58760;48.716;8.962;2023-03-25T05:45:35;95925.47;;;6.31;85.94
71105;BME280;58760;48.716;8.962;2023-03-25T05:48:01;95924.00;;;6.21;86.98
71105;BME280;58760;48.716;8.962;2023-03-25T05:50:27;95917.56;;;6.23;87.36
71105;BME280;58760;48.716;8.962;2023-03-25T05:52:53;95930.94;;;6.38;86.68
71105;BME280;58760;48.716;8.962;2023-03-25T05:55:20;95923.22;;;6.37;87.07
71105;BME280;58760;48.716;8.962;2023-03-25T05:57:47;95924.34;;;6.34;86.71
71105;BME280;58760;48.716;8.962;2023-03-25T06:00:13;95930.78;;;6.40;87.61
71105;BME280;58760;48.716;8.962;2023-03-25T06:02:40;95932.41;;;6.32;87.83
71105;BME280;58760;48.716;8.962;2023-03-25T06:05:08;95930.44;;;6.35;88.44
71105;BME280;58760;48.716;8.962;2023-03-25T06:07:35;95936.53;;;6.35;88.61
71105;BME280;58760;48.716;8.962;2023-03-25T06:10:02;95943.13;;;6.39;88.46
71105;BME280;58760;48.716;8.962;2023-03-25T06:12:29;95943.78;;;6.33;88.68
71105;BME280;58760;48.716;8.962;2023-03-25T06:14:57;95937.69;;;6.41;89.03
71105;BME280;58760;48.716;8.962;2023-03-25T06:17:23;95946.28;;;6.51;88.29
71105;BME280;58760;48.716;8.962;2023-03-25T06:19:51;95943.31;;;6.54;88.57
71105;BME280;58760;48.716;8.962;2023-03-25T06:22:17;95954.22;;;6.59;87.59
71105;BME280;58760;48.716;8.962;2023-03-25T06:24:46;95948.28;;;6.65;87.33
71105;BME280;58760;48.716;8.962;2023-03-25T06:27:17;95935.09;;;6.65;86.83
71105;BME280;58760;48.716;8.962;2023-03-25T06:29:43;95934.13;;;6.66;85.55
71105;BME280;58760;48.716;8.962;2023-03-25T06:32:13;95933.13;;;6.67;86.17
71105;BME280;58760;48.716;8.962;2023-03-25T06:34:40;95936.91;;;6.80;85.18
71105;BME280;58760;48.716;8.962;2023-03-25T06:37:09;95935.28;;;6.79;85.82
71105;BME280;58760;48.716;8.962;2023-03-25T06:39:34;95939.72;;;6.87;85.31
71105;BME280;58760;48.716;8.962;2023-03-25T06:42:03;95929.53;;;6.92;84.71
71105;BME280;58760;48.716;8.962;2023-03-25T06:44:29;95926.53;;;7.11;84.27
71105;BME280;58760;48.716;8.962;2023-03-25T06:46:54;95932.81;;;7.18;83.63
71105;BME280;58760;48.716;8.962;2023-03-25T06:49:20;95951.72;;;7.38;82.25
71105;BME280;58760;48.716;8.962;2023-03-25T06:51:46;95939.69;;;7.44;82.88
71105;BME280;58760;48.716;8.962;2023-03-25T06:54:11;95952.03;;;7.51;82.72
71105;BME280;58760;48.716;8.962;2023-03-25T06:56:36;95962.44;;;7.45;84.10
71105;BME280;58760;48.716;8.962;2023-03-25T06:59:02;95950.25;;;7.44;84.65
71105;BME280;58760;48.716;8.962;2023-03-25T07:01:27;95950.56;;;7.32;85.96
71105;BME280;58760;48.716;8.962;2023-03-25T07:03:53;95952.56;;;7.30;86.79
71105;BME280;58760;48.716;8.962;2023-03-25T07:06:20;95953.88;;;7.34;87.03
71105;BME280;58760;48.716;8.962;2023-03-25T07:08:47;95952.72;;;7.37;86.55
71105;BME280;58760;48.716;8.962;2023-03-25T07:11:13;95952.38;;;7.32;87.43
71105;BME280;58760;48.716;8.962;2023-03-25T07:13:39;95950.72;;;7.39;86.82
71105;BME280;58760;48.716;8.962;2023-03-25T07:16:05;95942.00;;;7.47;86.29
71105;BME280;58760;48.716;8.962;2023-03-25T07:18:31;95944.59;;;7.55;86.80
71105;BME280;58760;48.716;8.962;2023-03-25T07:20:56;95937.69;;;7.54;86.44
71105;BME280;58760;48.716;8.962;2023-03-25T07:23:22;95929.22;;;7.66;85.31
71105;BME280;58760;48.716;8.962;2023-03-25T07:25:47;95932.38;;;7.70;84.88
71105;BME280;58760;48.716;8.962;2023-03-25T07:28:13;95928.06;;;7.77;84.52
71105;BME280;58760;48.716;8.962;2023-03-25T07:30:39;95923.72;;;7.84;84.84
71105;BME280;58760;48.716;8.962;2023-03-25T07:33:04;95925.41;;;7.77;83.01
71105;BME280;58760;48.716;8.962;2023-03-25T07:35:30;95925.06;;;7.80;84.18
71105;BME280;58760;48.716;8.962;2023-03-25T07:37:55;95923.69;;;7.92;82.87
71105;BME280;58760;48.716;8.962;2023-03-25T07:40:21;95925.31;;;8.01;82.84
71105;BME280;58760;48.716;8.962;2023-03-25T07:42:46;95918.34;;;8.08;81.33
71105;BME280;58760;48.716;8.962;2023-03-25T07:45:11;95914.38;;;8.12;80.96
71105;BME280;58760;48.716;8.962;2023-03-25T07:47:37;95918.81;;;8.12;79.77
71105;BME280;58760;48.716;8.962;2023-03-25T07:50:03;95914.38;;;8.12;78.86
71105;BME280;58760;48.716;8.962;2023-03-25T07:52:28;95904.22;;;8.32;80.49
71105;BME280;58760;48.716;8.962;2023-03-25T07:54:54;95902.81;;;8.44;79.77
71105;BME280;58760;48.716;8.962;2023-03-25T07:57:19;95909.03;;;8.51;79.52
71105;BME280;58760;48.716;8.962;2023-03-25T07:59:45;95903.75;;;8.51;78.40
71105;BME280;58760;48.716;8.962;2023-03-25T08:02:13;95920.84;;;8.40;79.74
71105;BME280;58760;48.716;8.962;2023-03-25T08:04:40;95922.78;;;8.47;79.42
71105;BME280;58760;48.716;8.962;2023-03-25T08:07:05;95914.16;;;8.53;78.92
71105;BME280;58760;48.716;8.962;2023-03-25T08:09:32;95921.25;;;8.75;78.75
71105;BME280;58760;48.716;8.962;2023-03-25T08:11:57;95917.84;;;8.89;78.21
71105;BME280;58760;48.716;8.962;2023-03-25T08:14:23;95914.03;;;8.69;78.34
71105;BME280;58760;48.716;8.962;2023-03-25T08:16:49;95925.97;;;8.65;79.43
71105;BME280;58760;48.716;8.962;2023-03-25T08:19:14;95942.28;;;8.46;80.91
71105;BME280;58760;48.716;8.962;2023-03-25T08:21:40;95954.72;;;8.37;81.68
71105;BME280;58760;48.716;8.962;2023-03-25T08:24:05;95947.78;;;8.36;84.00
71105;BME280;58760;48.716;8.962;2023-03-25T08:26:32;95961.69;;;7.83;87.44
71105;BME280;58760;48.716;8.962;2023-03-25T08:28:58;95971.34;;;7.44;89.26
71105;BME280;58760;48.716;8.962;2023-03-25T08:31:24;95964.09;;;7.29;91.25
71105;BME280;58760;48.716;8.962;2023-03-25T08:33:50;95965.09;;;7.12;89.89
71105;BME280;58760;48.716;8.962;2023-03-25T08:36:16;95969.06;;;7.16;90.95
71105;BME280;58760;48.716;8.962;2023-03-25T08:38:50;95954.56;;;7.20;90.20
71105;BME280;58760;48.716;8.962;2023-03-25T08:41:16;95960.97;;;7.34;90.23
71105;BME280;58760;48.716;8.962;2023-03-25T08:43:41;95958.69;;;7.31;90.97
71105;BME280;58760;48.716;8.962;2023-03-25T08:46:07;95962.44;;;7.28;91.53
71105;BME280;58760;48.716;8.962;2023-03-25T08:48:32;95955.53;;;7.27;91.15
71105;BME280;58760;48.716;8.962;2023-03-25T08:50:58;95962.47;;;7.20;92.26
71105;BME280;58760;48.716;8.962;2023-03-25T08:53:24;95975.00;;;7.10;92.72
71105;BME280;58760;48.716;8.962;2023-03-25T08:55:53;95970.06;;;7.07;93.85
71105;BME280;58760;48.716;8.962;2023-03-25T08:58:19;95972.38;;;7.10;94.98
71105;BME280;58760;48.716;8.962;2023-03-25T09:00:46;95982.75;;;7.12;95.77
71105;BME280;58760;48.716;8.962;2023-03-25T09:03:12;95963.47;;;7.27;96.21
71105;BME280;58760;48.716;8.962;2023-03-25T09:05:38;95949.41;;;7.43;96.36
71105;BME280;58760;48.716;8.962;2023-03-25T09:08:04;95939.66;;;7.60;96.49
71105;BME280;58760;48.716;8.962;2023-03-25T09:10:30;95929.72;;;7.62;94.30
71105;BME280;58760;48.716;8.962;2023-03-25T09:12:55;95931.00;;;7.74;94.56
71105;BME280;58760;48.716;8.962;2023-03-25T09:15:21;95932.94;;;7.88;94.33
71105;BME280;58760;48.716;8.962;2023-03-25T09:17:46;95943.72;;;8.17;95.13
71105;BME280;58760;48.716;8.962;2023-03-25T09:20:12;95940.31;;;8.09;93.90
71105;BME280;58760;48.716;8.962;2023-03-25T09:22:38;95936.19;;;8.06;93.53
71105;BME280;58760;48.716;8.962;2023-03-25T09:25:04;95939.41;;;8.24;94.18
71105;BME280;58760;48.716;8.962;2023-03-25T09:27:31;95933.72;;;8.44;93.32
71105;BME280;58760;48.716;8.962;2023-03-25T09:29:56;95924.13;;;8.65;92.34
71105;BME280;58760;48.716;8.962;2023-03-25T09:32:22;95926.38;;;8.76;92.40
71105;BME280;58760;48.716;8.962;2023-03-25T09:34:47;95918.06;;;8.65;89.81
71105;BME280;58760;48.716;8.962;2023-03-25T09:37:12;95921.03;;;8.62;89.10
71105;BME280;58760;48.716;8.962;2023-03-25T09:39:38;95918.44;;;8.76;89.53
71105;BME280;58760;48.716;8.962;2023-03-25T09:42:27;95920.22;;;8.84;89.87
71105;BME280;58760;48.716;8.962;2023-03-25T09:47:27;95930.69;;;9.15;88.60
71105;BME280;58760;48.716;8.962;2023-03-25T09:49:56;95919.97;;;9.31;86.56
71105;BME280;58760;48.716;8.962;2023-03-25T09:52:35;95924.28;;;9.46;84.97
71105;BME280;58760;48.716;8.962;2023-03-25T09:55:08;95924.00;;;9.41;83.21
71105;BME280;58760;48.716;8.962;2023-03-25T09:57:44;95924.28;;;9.46;83.14
71105;BME280;58760;48.716;8.962;2023-03-25T10:00:17;95917.63;;;9.51;83.10
71105;BME280;58760;48.716;8.962;2023-03-25T10:05:47;95933.41;;;9.44;79.30
71105;BME280;58760;48.716;8.962;2023-03-25T10:11:05;95923.22;;;9.70;81.32
71105;BME280;58760;48.716;8.962;2023-03-25T10:14:09;95921.66;;;9.90;78.15
71105;BME280;58760;48.716;8.962;2023-03-25T10:16:44;95929.13;;;9.72;79.24
71105;BME280;58760;48.716;8.962;2023-03-25T10:19:27;95929.03;;;9.66;80.32
71105;BME280;58760;48.716;8.962;2023-03-25T10:22:11;95915.91;;;9.58;79.44
71105;BME280;58760;48.716;8.962;2023-03-25T10:24:53;95918.53;;;9.72;79.28
71105;BME280;58760;48.716;8.962;2023-03-25T10:27:43;95921.75;;;9.82;78.17
71105;BME280;58760;48.716;8.962;2023-03-25T10:30:23;95908.75;;;10.02;76.67
71105;BME280;58760;48.716;8.962;2023-03-25T10:32:53;95919.63;;;10.22;73.71
71105;BME280;58760;48.716;8.962;2023-03-25T10:35:23;95909.19;;;10.35;75.41
71105;BME280;58760;48.716;8.962;2023-03-25T10:37:52;95937.28;;;10.29;75.22
71105;BME280;58760;48.716;8.962;2023-03-25T10:40:24;95923.59;;;10.47;72.78
71105;BME280;58760;48.716;8.962;2023-03-25T10:42:54;95922.69;;;10.55;71.80
71105;BME280;58760;48.716;8.962;2023-03-25T10:45:22;95932.28;;;10.56;70.36
71105;BME280;58760;48.716;8.962;2023-03-25T10:47:50;95929.06;;;10.60;69.72
71105;BME280;58760;48.716;8.962;2023-03-25T10:50:19;95936.94;;;10.54;69.42
71105;BME280;58760;48.716;8.962;2023-03-25T10:52:47;95926.09;;;10.70;70.30
71105;BME280;58760;48.716;8.962;2023-03-25T10:55:27;95923.16;;;10.79;71.17
71105;BME280;58760;48.716;8.962;2023-03-25T10:57:53;95926.09;;;11.12;71.10
71105;BME280;58760;48.716;8.962;2023-03-25T11:00:20;95937.22;;;11.22;71.13
71105;BME280;58760;48.716;8.962;2023-03-25T11:02:49;95939.94;;;11.29;70.73
71105;BME280;58760;48.716;8.962;2023-03-25T11:05:16;95932.44;;;10.90;69.57
71105;BME280;58760;48.716;8.962;2023-03-25T11:08:03;95937.44;;;10.78;69.86
71105;BME280;58760;48.716;8.962;2023-03-25T11:10:31;95927.16;;;10.54;70.64
71105;BME280;58760;48.716;8.962;2023-03-25T11:12:59;95920.50;;;10.79;70.94
71105;BME280;58760;48.716;8.962;2023-03-25T11:15:30;95915.88;;;10.88;69.39
71105;BME280;58760;48.716;8.962;2023-03-25T11:18:14;95916.56;;;11.18;69.35
71105;BME280;58760;48.716;8.962;2023-03-25T11:20:47;95914.91;;;11.17;69.15
71105;BME280;58760;48.716;8.962;2023-03-25T11:26:25;95907.78;;;11.45;67.66
71105;BME280;58760;48.716;8.962;2023-03-25T11:28:54;95901.47;;;11.18;66.78
71105;BME280;58760;48.716;8.962;2023-03-25T11:31:25;95898.22;;;11.23;67.52
71105;BME280;58760;48.716;8.962;2023-03-25T11:34:05;95895.72;;;11.15;66.18
71105;BME280;58760;48.716;8.962;2023-03-25T11:36:33;95884.25;;;11.14;66.68
71105;BME280;58760;48.716;8.962;2023-03-25T11:39:02;95890.00;;;11.18;66.61
71105;BME280;58760;48.716;8.962;2023-03-25T11:41:34;95913.09;;;11.17;66.25
71105;BME280;58760;48.716;8.962;2023-03-25T11:44:03;95917.44;;;11.03;66.98
71105;BME280;58760;48.716;8.962;2023-03-25T11:46:30;95893.13;;;11.55;66.22
71105;BME280;58760;48.716;8.962;2023-03-25T11:49:06;95898.63;;;11.47;64.94
71105;BME280;58760;48.716;8.962;2023-03-25T11:51:32;95906.75;;;11.74;64.44
71105;BME280;58760;48.716;8.962;2023-03-25T11:54:01;95902.50;;;12.20;65.58
71105;BME280;58760;48.716;8.962;2023-03-25T11:56:38;95909.38;;;12.49;63.72
71105;BME280;58760;48.716;8.962;2023-03-25T11:59:17;95898.56;;;12.57;61.39
71105;BME280;58760;48.716;8.962;2023-03-25T12:01:45;95897.53;;;12.51;60.14
71105;BME280;58760;48.716;8.962;2023-03-25T12:04:23;95891.63;;;12.09;61.69
71105;BME280;58760;48.716;8.962;2023-03-25T12:06:58;95896.19;;;11.52;70.55
71105;BME280;58760;48.716;8.962;2023-03-25T12:09:27;95890.84;;;12.95;68.48
71105;BME280;58760;48.716;8.962;2023-03-25T12:12:22;95884.03;;;14.04;60.88
71105;BME280;58760;48.716;8.962;2023-03-25T12:23:01;95913.66;;;15.16;51.93
71105;BME280;58760;48.716;8.962;2023-03-25T12:34:09;95940.13;;;12.51;59.30
71105;BME280;58760;48.716;8.962;2023-03-25T12:41:59;95941.16;;;11.05;69.94
71105;BME280;58760;48.716;8.962;2023-03-25T12:44:50;95948.34;;;11.32;65.51
71105;BME280;58760;48.716;8.962;2023-03-25T12:47:41;95951.28;;;10.95;66.05
71105;BME280;58760;48.716;8.962;2023-03-25T13:04:00;95918.75;;;14.55;53.85
71105;BME280;58760;48.716;8.962;2023-03-25T13:12:13;95937.84;;;13.48;58.50
71105;BME280;58760;48.716;8.962;2023-03-25T13:15:17;95923.09;;;13.26;58.96
71105;BME280;58760;48.716;8.962;2023-03-25T13:17:52;95938.19;;;12.93;59.54
71105;BME280;58760;48.716;8.962;2023-03-25T13:20:21;95945.41;;;11.21;72.31
71105;BME280;58760;48.716;8.962;2023-03-25T13:22:51;95936.00;;;12.55;69.54
71105;BME280;58760;48.716;8.962;2023-03-25T13:25:23;95930.38;;;14.16;63.00
71105;BME280;58760;48.716;8.962;2023-03-25T13:27:52;95926.19;;;15.47;59.01
71105;BME280;58760;48.716;8.962;2023-03-25T13:32:54;95926.50;;;15.63;54.57
71105;BME280;58760;48.716;8.962;2023-03-25T13:38:03;95924.75;;;17.03;51.01
71105;BME280;58760;48.716;8.962;2023-03-25T13:40:48;95895.88;;;17.93;44.57
71105;BME280;58760;48.716;8.962;2023-03-25T13:43:34;95893.66;;;18.93;42.31
71105;BME280;58760;48.716;8.962;2023-03-25T13:46:07;95903.16;;;18.44;42.50
71105;BME280;58760;48.716;8.962;2023-03-25T13:51:11;95906.31;;;20.20;40.47
71105;BME280;58760;48.716;8.962;2023-03-25T13:53:45;95912.28;;;18.31;41.82
71105;BME280;58760;48.716;8.962;2023-03-25T13:56:31;95921.16;;;15.63;45.26
71105;BME280;58760;48.716;8.962;2023-03-25T13:59:24;95930.97;;;14.18;50.31
71105;BME280;58760;48.716;8.962;2023-03-25T14:05:03;95950.31;;;12.41;56.52
71105;BME280;58760;48.716;8.962;2023-03-25T14:07:47;95941.31;;;11.74;59.65
71105;BME280;58760;48.716;8.962;2023-03-25T14:10:45;95929.44;;;11.70;53.88
71105;BME280;58760;48.716;8.962;2023-03-25T14:13:34;95922.03;;;12.40;54.99
71105;BME280;58760;48.716;8.962;2023-03-25T14:16:07;95912.81;;;13.62;53.05
71105;BME280;58760;48.716;8.962;2023-03-25T14:18:41;95899.84;;;14.63;51.21
71105;BME280;58760;48.716;8.962;2023-03-25T14:21:11;95899.84;;;15.93;47.97
71105;BME280;58760;48.716;8.962;2023-03-25T14:23:37;95903.47;;;16.90;44.92
71105;BME280;58760;48.716;8.962;2023-03-25T14:26:05;95919.53;;;15.31;47.66
71105;BME280;58760;48.716;8.962;2023-03-25T14:28:38;95891.38;;;16.99;45.49
71105;BME280;58760;48.716;8.962;2023-03-25T14:31:30;95907.69;;;15.45;49.89
71105;BME280;58760;48.716;8.962;2023-03-25T14:39:08;95881.72;;;19.95;40.28
71105;BME280;58760;48.716;8.962;2023-03-25T14:44:23;95860.94;;;22.31;34.28
71105;BME280;58760;48.716;8.962;2023-03-25T14:52:44;95867.19;;;23.09;31.15
71105;BME280;58760;48.716;8.962;2023-03-25T14:55:31;95861.59;;;22.59;32.05
71105;BME280;58760;48.716;8.962;2023-03-25T14:58:00;95859.31;;;23.03;30.49
71105;BME280;58760;48.716;8.962;2023-03-25T15:00:39;95859.91;;;23.30;30.80
71105;BME280;58760;48.716;8.962;2023-03-25T15:03:14;95856.88;;;24.42;29.36
71105;BME280;58760;48.716;8.962;2023-03-25T15:05:43;95855.53;;;22.99;30.30
71105;BME280;58760;48.716;8.962;2023-03-25T15:08:11;95866.03;;;22.28;30.29
71105;BME280;58760;48.716;8.962;2023-03-25T15:10:44;95882.31;;;21.06;32.35
71105;BME280;58760;48.716;8.962;2023-03-25T15:26:28;95873.81;;;18.14;39.10
71105;BME280;58760;48.716;8.962;2023-03-25T15:31:51;95882.28;;;15.61;45.94